createdAt,value
2018-05-14T00:02:06.873Z,73.63
2018-05-14T00:04:35.003Z,73.30
2018-05-14T00:07:03.144Z,73.33
2018-05-14T00:09:31.261Z,73.55
2018-05-14T00:11:59.401Z,73.51
2018-05-14T00:14:27.540Z,72.85
2018-05-14T00:16:55.673Z,72.72
2018-05-14T00:19:23.814Z,71.86
2018-05-14T00:21:51.927Z,72.00
2018-05-14T00:24:20.054Z,71.61
2018-05-14T00:26:48.239Z,71.60
2018-05-14T00:29:16.350Z,71.38
2018-05-14T00:31:44.481Z,71.99
2018-05-14T00:34:12.627Z,71.88
2018-05-14T00:36:40.741Z,71.97
2018-05-14T00:39:09.794Z,72.57
2018-05-14T00:41:37.915Z,72.65
2018-05-14T00:44:06.059Z,72.85
2018-05-14T00:46:34.182Z,72.93
2018-05-14T00:49:02.328Z,73.11
2018-05-14T00:51:30.455Z,73.43
2018-05-14T00:53:58.577Z,73.75
2018-05-14T00:56:26.713Z,73.62
2018-05-14T00:58:54.871Z,73.44
2018-05-14T01:01:22.982Z,73.53
2018-05-14T01:03:51.121Z,73.59
2018-05-14T01:06:19.281Z,73.68
2018-05-14T01:08:47.412Z,73.57
2018-05-14T01:11:15.664Z,73.31
2018-05-14T01:13:43.794Z,73.29
2018-05-14T01:16:11.916Z,72.16
2018-05-14T01:18:40.043Z,72.27
2018-05-14T01:21:08.179Z,73.06
2018-05-14T01:23:36.319Z,73.67
2018-05-14T01:26:04.467Z,74.38
2018-05-14T01:28:32.583Z,74.73
2018-05-14T01:31:00.707Z,74.98
2018-05-14T01:33:28.855Z,75.23
2018-05-14T01:35:56.974Z,75.32
2018-05-14T01:38:25.112Z,75.22
2018-05-14T01:40:53.247Z,75.79
2018-05-14T01:43:21.385Z,75.59
2018-05-14T01:45:49.523Z,75.60
2018-05-14T01:48:17.690Z,75.40
2018-05-14T01:50:45.844Z,75.24
2018-05-14T01:53:13.979Z,75.15
2018-05-14T01:55:42.118Z,75.06
2018-05-14T01:58:10.254Z,75.41
2018-05-14T02:00:38.404Z,75.29
2018-05-14T02:03:06.778Z,75.55
2018-05-14T02:05:34.902Z,75.14
2018-05-14T02:08:03.036Z,74.63
2018-05-14T02:10:31.157Z,74.57
2018-05-14T02:12:59.296Z,74.35
2018-05-14T02:15:27.437Z,74.63
2018-05-14T02:17:55.569Z,74.60
2018-05-14T02:20:23.692Z,74.62
2018-05-14T02:22:51.811Z,75.00
2018-05-14T02:25:19.948Z,75.63
2018-05-14T02:27:48.077Z,75.73
2018-05-14T02:30:16.206Z,75.97
2018-05-14T02:32:44.347Z,75.51
2018-05-14T02:35:12.499Z,75.87
2018-05-14T02:37:40.640Z,75.61
2018-05-14T02:40:08.764Z,75.94
2018-05-14T02:42:36.890Z,76.08
2018-05-14T02:45:05.034Z,76.09
2018-05-14T02:47:33.178Z,76.34
2018-05-14T02:50:01.311Z,76.36
2018-05-14T02:52:29.445Z,76.80
2018-05-14T02:54:57.579Z,76.65
2018-05-14T02:57:25.703Z,76.03
2018-05-14T02:59:53.848Z,75.97
2018-05-14T03:02:21.978Z,75.87
2018-05-14T03:04:50.108Z,75.99
2018-05-14T03:07:18.324Z,75.70
2018-05-14T03:09:46.400Z,75.48
2018-05-14T03:12:14.525Z,75.26
2018-05-14T03:14:42.643Z,74.44
2018-05-14T03:17:10.799Z,74.60
2018-05-14T03:19:39.207Z,74.50
2018-05-14T03:22:07.352Z,74.15
2018-05-14T03:24:35.490Z,74.16
2018-05-14T03:27:03.617Z,74.65
2018-05-14T03:29:31.753Z,74.61
2018-05-14T03:31:59.886Z,74.63
2018-05-14T03:34:28.031Z,74.72
2018-05-14T03:36:56.150Z,74.65
2018-05-14T03:39:24.291Z,74.65
2018-05-14T03:41:52.415Z,74.88
2018-05-14T03:44:20.565Z,74.42
2018-05-14T03:46:48.715Z,74.64
2018-05-14T03:49:17.201Z,75.05
2018-05-14T03:51:45.332Z,74.73
2018-05-14T03:54:13.458Z,74.58
2018-05-14T03:56:41.608Z,74.68
2018-05-14T03:59:21.568Z,74.85
2018-05-14T04:02:16.647Z,74.94
2018-05-14T04:04:56.471Z,74.83
2018-05-14T04:07:24.594Z,74.71
2018-05-14T04:09:52.715Z,74.66
2018-05-14T04:12:20.842Z,74.20
2018-05-14T04:14:48.987Z,74.06
2018-05-14T04:17:17.135Z,74.14
2018-05-14T04:19:45.260Z,73.98
2018-05-14T04:22:13.402Z,74.00
2018-05-14T04:24:41.526Z,74.31
2018-05-14T04:27:10.575Z,73.96
2018-05-14T04:29:38.703Z,74.71
2018-05-14T04:32:06.853Z,74.67
2018-05-14T04:34:35.006Z,74.05
2018-05-14T04:37:03.148Z,73.97
2018-05-14T04:39:31.274Z,72.97
2018-05-14T04:41:59.423Z,73.13
2018-05-14T04:44:27.557Z,73.60
2018-05-14T04:46:55.699Z,73.70
2018-05-14T04:49:23.836Z,73.04
2018-05-14T04:51:51.963Z,72.53
2018-05-14T04:54:20.092Z,73.44
2018-05-14T04:56:48.272Z,72.55
2018-05-14T04:59:16.452Z,72.30
2018-05-14T05:01:44.527Z,72.50
2018-05-14T05:04:12.679Z,73.02
2018-05-14T05:06:40.808Z,73.03
2018-05-14T05:09:08.955Z,72.90
2018-05-14T05:11:37.141Z,72.36
2018-05-14T05:14:05.573Z,71.82
2018-05-14T05:16:33.690Z,72.01
2018-05-14T05:19:01.816Z,72.13
2018-05-14T05:21:29.953Z,71.89
2018-05-14T05:23:58.086Z,71.48
2018-05-14T05:26:26.193Z,71.46
2018-05-14T05:28:54.339Z,71.42
2018-05-14T05:31:22.471Z,71.03
2018-05-14T05:33:50.620Z,71.04
2018-05-14T05:36:18.753Z,71.21
2018-05-14T05:38:46.908Z,71.10
2018-05-14T05:41:15.054Z,71.29
2018-05-14T05:43:43.174Z,70.58
2018-05-14T05:46:11.345Z,71.09
2018-05-14T05:48:39.573Z,70.71
2018-05-14T05:51:07.721Z,70.53
2018-05-14T05:53:35.871Z,70.70
2018-05-14T05:56:03.999Z,70.85
2018-05-14T05:58:32.147Z,70.46
2018-05-14T06:01:00.295Z,70.30
2018-05-14T06:03:28.421Z,70.05
2018-05-14T06:05:56.544Z,69.39
2018-05-14T06:08:24.694Z,69.42
2018-05-14T06:10:52.826Z,69.35
2018-05-14T06:13:20.965Z,69.29
2018-05-14T06:15:49.101Z,69.64
2018-05-14T06:18:17.243Z,69.78
2018-05-14T06:20:45.357Z,69.39
2018-05-14T06:23:13.493Z,69.84
2018-05-14T06:25:41.610Z,69.35
2018-05-14T06:28:10.110Z,69.51
2018-05-14T06:30:38.228Z,69.35
2018-05-14T06:33:06.511Z,69.81
2018-05-14T06:35:34.629Z,69.78
2018-05-14T06:38:02.765Z,69.34
2018-05-14T06:40:30.913Z,68.92
2018-05-14T06:42:59.101Z,69.10
2018-05-14T06:45:27.257Z,69.30
2018-05-14T06:47:55.400Z,70.00
2018-05-14T06:50:23.592Z,70.61
2018-05-14T06:52:51.727Z,70.55
2018-05-14T06:55:19.872Z,71.07
2018-05-14T06:57:48.075Z,72.17
2018-05-14T07:00:16.208Z,71.71
2018-05-14T07:02:44.531Z,72.63
2018-05-14T07:05:12.668Z,73.09
2018-05-14T07:07:40.816Z,72.33
2018-05-14T07:10:09.137Z,73.00
2018-05-14T07:12:37.268Z,72.19
2018-05-14T07:15:05.518Z,72.90
2018-05-14T07:17:33.658Z,73.77
2018-05-14T07:20:01.802Z,73.81
2018-05-14T07:22:29.947Z,73.92
2018-05-14T07:24:58.071Z,73.15
2018-05-14T07:27:26.222Z,73.19
2018-05-14T07:29:54.340Z,72.31
2018-05-14T07:32:22.486Z,73.35
2018-05-14T07:34:50.618Z,73.08
2018-05-14T07:37:18.780Z,74.28
2018-05-14T07:39:46.902Z,73.05
2018-05-14T07:42:15.031Z,73.49
2018-05-14T07:44:43.152Z,73.34
2018-05-14T07:47:11.315Z,72.97
2018-05-14T07:49:39.448Z,72.02
2018-05-14T07:52:07.580Z,72.44
2018-05-14T07:54:35.760Z,71.97
2018-05-14T07:57:03.884Z,71.96
2018-05-14T07:59:32.065Z,71.42
2018-05-14T08:02:00.283Z,71.61
2018-05-14T08:04:28.443Z,71.68
2018-05-14T08:06:56.593Z,71.20
2018-05-14T08:09:24.745Z,71.31
2018-05-14T08:11:52.863Z,70.88
2018-05-14T08:14:21.020Z,71.88
2018-05-14T08:16:49.235Z,71.19
2018-05-14T08:19:17.401Z,71.25
2018-05-14T08:21:45.533Z,72.10
2018-05-14T08:24:13.675Z,71.41
2018-05-14T08:26:41.809Z,72.04
2018-05-14T08:29:10.331Z,72.72
2018-05-14T08:31:38.469Z,72.48
2018-05-14T08:34:06.602Z,72.10
2018-05-14T08:36:35.618Z,72.83
2018-05-14T08:39:04.354Z,72.22
2018-05-14T08:41:32.504Z,73.36
2018-05-14T08:44:00.671Z,72.24
2018-05-14T08:46:28.829Z,71.98
2018-05-14T08:48:56.973Z,71.29
2018-05-14T08:51:25.101Z,70.96
2018-05-14T08:53:53.220Z,71.37
2018-05-14T08:56:21.368Z,70.19
2018-05-14T08:58:49.492Z,69.70
2018-05-14T09:01:17.632Z,68.55
2018-05-14T09:03:45.766Z,68.98
2018-05-14T09:06:13.896Z,68.53
2018-05-14T09:08:42.172Z,67.60
2018-05-14T09:11:10.231Z,67.07
2018-05-14T09:13:38.359Z,65.51
2018-05-14T09:16:06.511Z,65.19
2018-05-14T09:18:34.634Z,65.73
2018-05-14T09:21:02.756Z,63.78
2018-05-14T09:23:30.943Z,63.38
2018-05-14T09:25:59.092Z,64.52
2018-05-14T09:28:27.226Z,63.89
2018-05-14T09:30:55.371Z,61.83
2018-05-14T09:33:23.579Z,60.89
2018-05-14T09:35:51.691Z,60.76
2018-05-14T09:38:19.827Z,61.42
2018-05-14T09:40:48.015Z,61.59
2018-05-14T09:43:16.165Z,60.42
2018-05-14T09:45:44.315Z,60.45
2018-05-14T09:48:12.456Z,60.08
2018-05-14T09:50:40.622Z,59.68
2018-05-14T09:53:08.784Z,60.54
2018-05-14T09:55:36.928Z,61.23
2018-05-14T09:58:05.059Z,60.98
2018-05-14T10:00:33.181Z,60.02
2018-05-14T10:03:01.287Z,60.69
2018-05-14T10:05:29.417Z,61.57
2018-05-14T10:07:57.533Z,61.29
2018-05-14T10:10:25.669Z,61.11
2018-05-14T10:12:53.824Z,61.00
2018-05-14T10:15:21.936Z,61.05
2018-05-14T10:17:50.108Z,61.05
2018-05-14T10:20:18.219Z,61.61
2018-05-14T10:22:46.343Z,61.27
2018-05-14T10:25:14.491Z,61.75
2018-05-14T10:27:42.631Z,60.89
2018-05-14T10:30:10.797Z,62.04
2018-05-14T10:32:38.918Z,61.95
2018-05-14T10:35:07.085Z,60.91
2018-05-14T10:37:35.209Z,60.31
2018-05-14T10:40:03.340Z,60.15
2018-05-14T10:42:31.477Z,60.24
2018-05-14T10:44:59.816Z,60.42
2018-05-14T10:47:27.968Z,60.14
2018-05-14T10:49:56.097Z,60.17
2018-05-14T10:52:24.231Z,59.29
2018-05-14T10:54:52.391Z,60.42
2018-05-14T10:57:20.542Z,60.71
2018-05-14T10:59:48.672Z,60.43
2018-05-14T11:02:17.089Z,60.10
2018-05-14T11:04:45.211Z,61.15
2018-05-14T11:09:40.784Z,62.76
2018-05-14T11:12:08.923Z,62.00
2018-05-14T11:14:37.057Z,62.17
2018-05-14T11:17:05.446Z,62.14
2018-05-14T11:19:33.591Z,60.75
2018-05-14T11:22:01.717Z,59.06
2018-05-14T11:24:29.840Z,58.28
2018-05-14T11:26:57.994Z,57.47
2018-05-14T11:29:26.223Z,56.15
2018-05-14T11:31:57.841Z,56.57
2018-05-14T11:34:29.388Z,57.19
2018-05-14T11:36:57.557Z,56.90
2018-05-14T11:39:25.782Z,57.65
2018-05-14T11:41:53.935Z,57.86
2018-05-14T11:44:22.079Z,56.85
2018-05-14T11:46:50.239Z,56.03
2018-05-14T11:49:18.425Z,55.71
2018-05-14T11:51:46.541Z,55.46
2018-05-14T11:54:14.695Z,54.53
2018-05-14T11:56:42.895Z,55.48
2018-05-14T11:59:11.034Z,55.02
2018-05-14T12:01:39.163Z,55.57
2018-05-14T12:04:07.317Z,56.53
2018-05-14T12:06:35.482Z,55.64
2018-05-14T12:09:03.627Z,53.24
2018-05-14T12:11:31.781Z,53.85
2018-05-14T12:13:59.929Z,53.95
2018-05-14T12:16:28.053Z,54.24
2018-05-14T12:18:56.179Z,53.75
2018-05-14T12:21:24.330Z,54.02
2018-05-14T12:23:52.444Z,54.50
2018-05-14T12:26:20.606Z,54.78
2018-05-14T12:28:48.729Z,53.77
2018-05-14T12:31:16.856Z,54.62
2018-05-14T12:33:45.013Z,54.70
2018-05-14T12:36:13.151Z,53.27
2018-05-14T12:38:41.298Z,53.40
2018-05-14T12:41:09.435Z,53.90
2018-05-14T12:43:37.598Z,55.42
2018-05-14T12:46:05.797Z,51.92
2018-05-14T12:48:33.938Z,49.79
2018-05-14T12:51:02.077Z,50.48
2018-05-14T12:53:30.491Z,48.74
2018-05-14T12:55:58.623Z,47.28
2018-05-14T12:58:26.757Z,47.18
2018-05-14T13:00:54.869Z,47.14
2018-05-14T13:03:23.039Z,45.40
2018-05-14T13:05:51.184Z,45.71
2018-05-14T13:08:19.346Z,45.66
2018-05-14T13:10:47.507Z,43.52
2018-05-14T13:13:15.666Z,44.86
2018-05-14T13:15:43.775Z,49.31
2018-05-14T13:18:12.559Z,53.29
2018-05-14T13:20:40.709Z,54.31
2018-05-14T13:23:08.843Z,53.49
2018-05-14T13:25:36.965Z,54.17
2018-05-14T13:28:05.106Z,54.17
2018-05-14T13:30:33.234Z,53.66
2018-05-14T13:33:01.383Z,52.43
2018-05-14T13:35:29.508Z,52.84
2018-05-14T13:37:57.677Z,52.10
2018-05-14T13:40:25.795Z,52.73
2018-05-14T13:42:53.952Z,52.13
2018-05-14T13:45:22.104Z,52.72
2018-05-14T13:47:50.247Z,52.00
2018-05-14T13:50:18.385Z,52.56
2018-05-14T13:52:46.500Z,52.45
2018-05-14T13:55:14.624Z,51.66
2018-05-14T13:57:42.823Z,52.34
2018-05-14T14:00:10.941Z,51.87
2018-05-14T14:02:39.076Z,51.57
2018-05-14T14:05:07.380Z,51.30
2018-05-14T14:07:35.494Z,51.64
2018-05-14T14:10:03.641Z,52.02
2018-05-14T14:12:31.773Z,51.97
2018-05-14T14:14:59.932Z,52.31
2018-05-14T14:17:28.063Z,51.82
2018-05-14T14:19:56.194Z,51.79
2018-05-14T14:22:24.328Z,52.61
2018-05-14T14:24:52.449Z,51.89
2018-05-14T14:27:20.582Z,52.15
2018-05-14T14:29:48.789Z,52.72
2018-05-14T14:32:16.847Z,53.48
2018-05-14T14:34:45.007Z,53.49
2018-05-14T14:37:13.246Z,52.71
2018-05-14T14:39:41.316Z,52.85
2018-05-14T14:42:09.453Z,52.95
2018-05-14T14:44:37.583Z,53.74
2018-05-14T14:47:05.796Z,53.05
2018-05-14T14:49:33.919Z,52.94
2018-05-14T14:52:02.059Z,52.46
2018-05-14T14:54:30.177Z,53.32
2018-05-14T14:56:58.314Z,52.19
2018-05-14T14:59:26.439Z,52.33
2018-05-14T15:01:54.587Z,54.17
2018-05-14T15:04:22.707Z,53.61
2018-05-14T15:06:50.863Z,54.03
2018-05-14T15:09:19.014Z,52.93
2018-05-14T15:11:47.164Z,53.45
2018-05-14T15:14:15.401Z,54.06
2018-05-14T15:16:43.552Z,53.81
2018-05-14T15:19:11.688Z,54.29
2018-05-14T15:21:39.838Z,53.92
2018-05-14T15:24:07.966Z,54.10
2018-05-14T15:26:36.097Z,54.88
2018-05-14T15:29:04.225Z,53.42
2018-05-14T15:31:32.342Z,53.33
2018-05-14T15:34:00.466Z,53.20
2018-05-14T15:36:28.609Z,53.46
2018-05-14T15:38:56.731Z,54.11
2018-05-14T15:41:24.913Z,54.14
2018-05-14T15:43:53.010Z,53.77
2018-05-14T15:46:21.131Z,53.73
2018-05-14T15:48:49.283Z,53.92
2018-05-14T15:51:17.433Z,53.72
2018-05-14T15:53:45.686Z,54.29
2018-05-14T15:56:13.874Z,53.67
2018-05-14T15:58:41.925Z,54.24
2018-05-14T16:01:10.090Z,54.84
2018-05-14T16:03:38.245Z,54.36
2018-05-14T16:06:06.390Z,55.32
2018-05-14T16:08:34.532Z,55.76
2018-05-14T16:11:02.683Z,55.50
2018-05-14T16:13:30.826Z,54.93
2018-05-14T16:15:59.026Z,55.39
2018-05-14T16:18:27.083Z,54.96
2018-05-14T16:20:55.223Z,55.24
2018-05-14T16:23:23.393Z,56.06
2018-05-14T16:25:51.532Z,55.75
2018-05-14T16:28:19.647Z,55.11
2018-05-14T16:30:47.757Z,55.36
2018-05-14T16:33:15.972Z,55.68
2018-05-14T16:35:44.034Z,55.85
2018-05-14T16:38:12.162Z,55.83
2018-05-14T16:40:40.316Z,55.54
2018-05-14T16:43:08.453Z,56.56
2018-05-14T16:45:36.653Z,55.83
2018-05-14T16:48:04.790Z,56.20
2018-05-14T16:50:32.898Z,56.45
2018-05-14T16:53:01.054Z,56.86
2018-05-14T16:55:30.053Z,57.06
2018-05-14T16:57:58.276Z,57.23
2018-05-14T17:00:26.336Z,57.48
2018-05-14T17:02:54.559Z,57.43
2018-05-14T17:05:22.600Z,58.17
2018-05-14T17:07:50.763Z,58.26
2018-05-14T17:10:18.916Z,58.27
2018-05-14T17:12:47.050Z,59.02
2018-05-14T17:15:15.172Z,59.17
2018-05-14T17:17:43.297Z,58.96
2018-05-14T17:20:11.435Z,59.85
2018-05-14T17:22:39.581Z,59.98
2018-05-14T17:25:07.717Z,60.11
2018-05-14T17:27:35.851Z,60.31
2018-05-14T17:30:03.994Z,60.52
2018-05-14T17:34:59.384Z,61.47
2018-05-14T17:37:27.534Z,62.03
2018-05-14T17:39:55.658Z,62.11
2018-05-14T17:42:24.665Z,62.43
2018-05-14T17:44:52.800Z,62.69
2018-05-14T17:47:20.965Z,63.30
2018-05-14T17:49:49.085Z,63.33
2018-05-14T17:52:17.207Z,63.65
2018-05-14T17:54:45.358Z,63.81
2018-05-14T17:57:13.484Z,64.31
2018-05-14T17:59:41.598Z,64.73
2018-05-14T18:02:09.716Z,64.65
2018-05-14T18:04:39.290Z,64.55
2018-05-14T18:07:07.461Z,64.46
2018-05-14T18:09:35.577Z,64.78
2018-05-14T18:12:03.724Z,65.08
2018-05-14T18:14:31.844Z,65.00
2018-05-14T18:16:59.978Z,64.84
2018-05-14T18:19:28.110Z,65.53
2018-05-14T18:22:01.893Z,65.82
2018-05-14T18:24:30.125Z,65.63
2018-05-14T18:26:58.247Z,65.85
2018-05-14T18:29:30.279Z,66.28
2018-05-14T18:31:58.414Z,66.19
2018-05-14T18:34:32.209Z,66.54
2018-05-14T18:37:00.333Z,66.66
2018-05-14T18:39:28.474Z,66.83
2018-05-14T18:41:56.598Z,67.15
2018-05-14T18:44:30.265Z,66.79
2018-05-14T18:46:58.391Z,66.93
2018-05-14T18:49:26.549Z,67.62
2018-05-14T18:51:54.738Z,67.36
2018-05-14T18:54:23.454Z,67.52
2018-05-14T18:56:51.805Z,67.56
2018-05-14T18:59:19.931Z,67.12
2018-05-14T19:01:48.041Z,66.92
2018-05-14T19:04:16.184Z,66.40
2018-05-14T19:06:44.296Z,66.42
2018-05-14T19:09:12.457Z,66.87
2018-05-14T19:11:46.094Z,67.05
2018-05-14T19:14:14.224Z,66.31
2018-05-14T19:16:48.004Z,66.15
2018-05-14T19:19:16.154Z,66.34
2018-05-14T19:21:44.273Z,66.56
2018-05-14T19:24:12.414Z,66.36
2018-05-14T19:26:40.578Z,66.16
2018-05-14T19:29:14.430Z,66.58
2018-05-14T19:31:45.578Z,66.39
2018-05-14T19:34:19.173Z,66.19
2018-05-14T19:36:47.273Z,66.42
2018-05-14T19:39:20.924Z,66.57
2018-05-14T19:41:49.061Z,66.86
2018-05-14T19:44:17.179Z,66.95
2018-05-14T19:46:45.289Z,66.95
2018-05-14T19:49:13.440Z,67.17
2018-05-14T19:51:42.802Z,67.33
2018-05-14T19:54:10.910Z,67.30
2018-05-14T19:56:39.033Z,67.21
2018-05-14T19:59:07.190Z,67.50
2018-05-14T20:01:35.315Z,67.04
2018-05-14T20:04:03.439Z,67.08
2018-05-14T20:06:31.579Z,66.90
2018-05-14T20:08:59.697Z,67.33
2018-05-14T20:11:27.822Z,66.81
2018-05-14T20:13:55.936Z,66.86
2018-05-14T20:16:24.058Z,66.93
2018-05-14T20:18:52.207Z,66.86
2018-05-14T20:21:20.325Z,66.56
2018-05-14T20:23:48.465Z,66.76
2018-05-14T20:26:16.577Z,66.32
2018-05-14T20:28:44.703Z,66.08
2018-05-14T20:31:12.829Z,66.05
2018-05-14T20:33:40.960Z,66.55
2018-05-14T20:36:09.081Z,66.46
2018-05-14T20:38:37.209Z,66.50
2018-05-14T20:41:05.342Z,66.33
2018-05-14T20:43:33.458Z,66.51
2018-05-14T20:46:01.621Z,66.32
2018-05-14T20:48:29.777Z,66.10
2018-05-14T20:50:57.896Z,66.36
2018-05-14T20:53:26.041Z,66.49
2018-05-14T20:55:54.180Z,66.97
2018-05-14T20:58:22.315Z,67.19
2018-05-14T21:00:50.445Z,67.01
2018-05-14T21:03:19.217Z,67.27
2018-05-14T21:05:47.356Z,67.29
2018-05-14T21:08:15.471Z,67.78
2018-05-14T21:10:43.599Z,67.27
2018-05-14T21:13:11.713Z,67.53
2018-05-14T21:15:39.833Z,67.21
2018-05-14T21:18:07.957Z,67.67
2018-05-14T21:20:36.626Z,67.39
2018-05-14T21:23:04.752Z,67.77
2018-05-14T21:25:32.868Z,68.13
2018-05-14T21:28:00.986Z,67.89
2018-05-14T21:30:29.106Z,68.29
2018-05-14T21:32:57.232Z,68.42
2018-05-14T21:35:25.350Z,67.30
2018-05-14T21:37:53.467Z,67.33
2018-05-14T21:40:21.638Z,67.69
2018-05-14T21:42:49.822Z,67.38
2018-05-14T21:45:17.921Z,67.63
2018-05-14T21:47:46.047Z,67.21
2018-05-14T21:50:14.184Z,67.04
2018-05-14T21:52:42.308Z,66.77
2018-05-14T21:55:10.458Z,67.05
2018-05-14T21:57:38.595Z,67.13
2018-05-14T22:00:06.722Z,66.69
2018-05-14T22:02:34.848Z,66.85
2018-05-14T22:05:02.977Z,66.82
2018-05-14T22:07:31.093Z,66.37
2018-05-14T22:09:59.206Z,66.73
2018-05-14T22:12:27.348Z,66.45
2018-05-14T22:14:55.508Z,66.33
2018-05-14T22:17:23.694Z,66.84
2018-05-14T22:19:51.822Z,66.90
2018-05-14T22:22:19.961Z,66.75
2018-05-14T22:24:48.085Z,66.41
2018-05-14T22:27:16.224Z,65.95
2018-05-14T22:29:44.330Z,65.79
2018-05-14T22:32:12.489Z,65.82
2018-05-14T22:34:40.608Z,66.10
2018-05-14T22:37:09.734Z,65.67
2018-05-14T22:39:37.875Z,65.23
2018-05-14T22:42:06.005Z,64.87
2018-05-14T22:44:34.143Z,64.97
2018-05-14T22:47:02.281Z,64.68
2018-05-14T22:49:30.401Z,64.44
2018-05-14T22:51:58.538Z,64.16
2018-05-14T22:54:36.545Z,63.76
2018-05-14T22:57:04.665Z,63.71
2018-05-14T22:59:32.784Z,63.84
2018-05-14T23:02:00.913Z,64.09
2018-05-14T23:04:29.046Z,64.15
2018-05-14T23:06:57.164Z,63.53
2018-05-14T23:09:25.316Z,62.91
2018-05-14T23:11:53.408Z,62.79
2018-05-14T23:14:21.536Z,62.78
2018-05-14T23:16:49.651Z,62.50
2018-05-14T23:19:17.765Z,63.32
2018-05-14T23:21:45.891Z,63.23
2018-05-14T23:24:14.028Z,63.72
2018-05-14T23:26:42.157Z,63.73
2018-05-14T23:29:10.584Z,64.33
2018-05-14T23:31:38.753Z,64.48
2018-05-14T23:34:06.880Z,65.17
2018-05-14T23:36:34.993Z,65.21
2018-05-14T23:39:03.106Z,65.77
2018-05-14T23:41:31.248Z,66.67
2018-05-14T23:43:59.372Z,67.81
2018-05-14T23:46:27.504Z,67.72
2018-05-14T23:48:55.641Z,68.29
2018-05-14T23:51:23.762Z,68.20
2018-05-14T23:53:51.908Z,68.36
2018-05-14T23:56:20.011Z,69.05
2018-05-14T23:58:48.152Z,69.57
